sensor_id;sensor_type;location;lat;lon;timestamp;temperature;humidity
18281;DHT22;9266;51.132;17.062;2023-09-19T00:01:33;19.50;1.00
18281;DHT22;9266;51.132;17.062;2023-09-19T00:04:02;19.40;1.00
18281;DHT22;9266;51.132;17.062;2023-09-19T00:06:35;19.30;99.90
18281;DHT22;9266;51.132;17.062;2023-09-19T00:09:02;19.40;99.90
18281;DHT22;9266;51.132;17.062;2023-09-19T00:11:30;19.40;99.90
18281;DHT22;9266;51.132;17.062;2023-09-19T00:13:57;19.40;99.90
18281;DHT22;9266;51.132;17.062;2023-09-19T00:16:26;19.40;1.00
18281;DHT22;9266;51.132;17.062;2023-09-19T00:18:53;19.40;1.00
18281;DHT22;9266;51.132;17.062;2023-09-19T00:21:22;19.30;1.00
18281;DHT22;9266;51.132;17.062;2023-09-19T00:23:49;19.20;1.00
18281;DHT22;9266;51.132;17.062;2023-09-19T00:26:17;19.20;99.90
18281;DHT22;9266;51.132;17.062;2023-09-19T00:28:44;19.10;1.00
18281;DHT22;9266;51.132;17.062;2023-09-19T00:31:11;19.10;1.00
18281;DHT22;9266;51.132;17.062;2023-09-19T00:33:38;19.10;1.00
18281;DHT22;9266;51.132;17.062;2023-09-19T00:36:05;19.10;1.00
18281;DHT22;9266;51.132;17.062;2023-09-19T00:38:34;19.10;1.00
18281;DHT22;9266;51.132;17.062;2023-09-19T00:41:01;19.10;1.00
18281;DHT22;9266;51.132;17.062;2023-09-19T00:43:28;19.10;1.00
18281;DHT22;9266;51.132;17.062;2023-09-19T00:46:00;19.10;99.90
18281;DHT22;9266;51.132;17.062;2023-09-19T00:48:29;19.10;99.90
18281;DHT22;9266;51.132;17.062;2023-09-19T00:50:58;19.00;1.00
18281;DHT22;9266;51.132;17.062;2023-09-19T00:53:31;19.10;99.90
18281;DHT22;9266;51.132;17.062;2023-09-19T00:56:02;18.90;1.00
18281;DHT22;9266;51.132;17.062;2023-09-19T00:58:29;18.90;1.00
18281;DHT22;9266;51.132;17.062;2023-09-19T01:00:59;18.90;1.00
18281;DHT22;9266;51.132;17.062;2023-09-19T01:03:27;18.80;1.00
18281;DHT22;9266;51.132;17.062;2023-09-19T01:05:54;18.70;99.90
18281;DHT22;9266;51.132;17.062;2023-09-19T01:08:21;18.80;1.00
18281;DHT22;9266;51.132;17.062;2023-09-19T01:10:52;18.70;1.00
18281;DHT22;9266;51.132;17.062;2023-09-19T01:13:28;18.70;1.00
18281;DHT22;9266;51.132;17.062;2023-09-19T01:16:03;18.70;1.00
18281;DHT22;9266;51.132;17.062;2023-09-19T01:18:47;18.70;1.00
18281;DHT22;9266;51.132;17.062;2023-09-19T01:21:21;18.70;1.00
18281;DHT22;9266;51.132;17.062;2023-09-19T01:24:18;18.80;1.00
18281;DHT22;9266;51.132;17.062;2023-09-19T01:27:17;18.80;1.00
18281;DHT22;9266;51.132;17.062;2023-09-19T01:30:02;18.80;1.00
18281;DHT22;9266;51.132;17.062;2023-09-19T01:32:30;18.70;1.00
18281;DHT22;9266;51.132;17.062;2023-09-19T01:34:58;18.70;99.90
18281;DHT22;9266;51.132;17.062;2023-09-19T01:37:30;18.60;99.90
18281;DHT22;9266;51.132;17.062;2023-09-19T01:39:59;18.60;1.00
18281;DHT22;9266;51.132;17.062;2023-09-19T01:42:41;18.50;1.00
18281;DHT22;9266;51.132;17.062;2023-09-19T01:45:12;18.40;99.90
18281;DHT22;9266;51.132;17.062;2023-09-19T01:47:46;18.30;99.90
18281;DHT22;9266;51.132;17.062;2023-09-19T01:50:20;19.20;99.90
18281;DHT22;9266;51.132;17.062;2023-09-19T01:52:53;18.10;99.90
18281;DHT22;9266;51.132;17.062;2023-09-19T01:55:21;18.00;99.90
18281;DHT22;9266;51.132;17.062;2023-09-19T01:57:54;18.00;99.90
18281;DHT22;9266;51.132;17.062;2023-09-19T02:00:28;17.90;99.90
18281;DHT22;9266;51.132;17.062;2023-09-19T02:02:56;17.90;99.90
18281;DHT22;9266;51.132;17.062;2023-09-19T02:05:25;17.90;99.90
18281;DHT22;9266;51.132;17.062;2023-09-19T02:07:53;17.90;99.90
18281;DHT22;9266;51.132;17.062;2023-09-19T02:10:21;17.90;99.90
18281;DHT22;9266;51.132;17.062;2023-09-19T02:12:49;17.90;99.90
18281;DHT22;9266;51.132;17.062;2023-09-19T02:15:16;17.90;99.90
18281;DHT22;9266;51.132;17.062;2023-09-19T02:17:45;17.80;99.90
18281;DHT22;9266;51.132;17.062;2023-09-19T02:20:12;17.80;99.90
18281;DHT22;9266;51.132;17.062;2023-09-19T02:22:39;17.80;99.90
18281;DHT22;9266;51.132;17.062;2023-09-19T02:25:06;17.80;99.90
18281;DHT22;9266;51.132;17.062;2023-09-19T02:27:34;17.90;99.90
18281;DHT22;9266;51.132;17.062;2023-09-19T02:30:01;17.80;99.90
18281;DHT22;9266;51.132;17.062;2023-09-19T02:32:29;17.80;99.90
18281;DHT22;9266;51.132;17.062;2023-09-19T02:34:58;17.80;99.90
18281;DHT22;9266;51.132;17.062;2023-09-19T02:37:25;17.70;99.90
18281;DHT22;9266;51.132;17.062;2023-09-19T02:39:52;17.80;99.90
18281;DHT22;9266;51.132;17.062;2023-09-19T02:42:19;17.80;99.90
18281;DHT22;9266;51.132;17.062;2023-09-19T02:44:46;17.80;99.90
18281;DHT22;9266;51.132;17.062;2023-09-19T02:47:13;17.80;99.90
18281;DHT22;9266;51.132;17.062;2023-09-19T02:49:42;17.90;99.90
18281;DHT22;9266;51.132;17.062;2023-09-19T02:52:10;17.80;99.90
18281;DHT22;9266;51.132;17.062;2023-09-19T02:54:40;17.80;99.90
18281;DHT22;9266;51.132;17.062;2023-09-19T02:57:11;17.70;99.90
18281;DHT22;9266;51.132;17.062;2023-09-19T02:59:39;17.80;99.90
18281;DHT22;9266;51.132;17.062;2023-09-19T03:02:07;17.80;99.90
18281;DHT22;9266;51.132;17.062;2023-09-19T03:04:35;17.80;99.90
18281;DHT22;9266;51.132;17.062;2023-09-19T03:07:02;17.70;99.90
18281;DHT22;9266;51.132;17.062;2023-09-19T03:09:31;17.70;99.90
18281;DHT22;9266;51.132;17.062;2023-09-19T03:11:58;17.70;99.90
18281;DHT22;9266;51.132;17.062;2023-09-19T03:14:26;17.70;99.90
18281;DHT22;9266;51.132;17.062;2023-09-19T03:16:55;17.70;99.90
18281;DHT22;9266;51.132;17.062;2023-09-19T03:19:22;17.60;99.90
18281;DHT22;9266;51.132;17.062;2023-09-19T03:21:51;17.70;99.90
18281;DHT22;9266;51.132;17.062;2023-09-19T03:24:19;17.70;99.90
18281;DHT22;9266;51.132;17.062;2023-09-19T03:26:47;17.60;99.90
18281;DHT22;9266;51.132;17.062;2023-09-19T03:29:14;17.70;99.90
18281;DHT22;9266;51.132;17.062;2023-09-19T03:31:42;17.60;99.90
18281;DHT22;9266;51.132;17.062;2023-09-19T03:34:09;17.70;99.90
18281;DHT22;9266;51.132;17.062;2023-09-19T03:36:36;17.70;99.90
18281;DHT22;9266;51.132;17.062;2023-09-19T03:39:03;17.70;99.90
18281;DHT22;9266;51.132;17.062;2023-09-19T03:41:31;17.70;99.90
18281;DHT22;9266;51.132;17.062;2023-09-19T03:44:00;17.70;99.90
18281;DHT22;9266;51.132;17.062;2023-09-19T03:46:27;17.70;99.90
18281;DHT22;9266;51.132;17.062;2023-09-19T03:48:54;17.70;99.90
18281;DHT22;9266;51.132;17.062;2023-09-19T03:51:21;17.70;99.90
18281;DHT22;9266;51.132;17.062;2023-09-19T03:53:48;17.80;99.90
18281;DHT22;9266;51.132;17.062;2023-09-19T03:56:15;17.80;99.90
18281;DHT22;9266;51.132;17.062;2023-09-19T03:58:43;17.80;99.90
18281;DHT22;9266;51.132;17.062;2023-09-19T04:01:11;17.80;99.90
18281;DHT22;9266;51.132;17.062;2023-09-19T04:03:39;17.80;99.90
18281;DHT22;9266;51.132;17.062;2023-09-19T04:06:13;17.80;99.90
18281;DHT22;9266;51.132;17.062;2023-09-19T04:08:40;17.80;99.90
18281;DHT22;9266;51.132;17.062;2023-09-19T04:11:07;17.80;99.90
18281;DHT22;9266;51.132;17.062;2023-09-19T04:13:34;17.70;99.90
18281;DHT22;9266;51.132;17.062;2023-09-19T04:16:01;17.70;99.90
18281;DHT22;9266;51.132;17.062;2023-09-19T04:18:30;17.70;99.90
18281;DHT22;9266;51.132;17.062;2023-09-19T04:20:59;17.70;99.90
18281;DHT22;9266;51.132;17.062;2023-09-19T04:23:28;17.60;99.90
18281;DHT22;9266;51.132;17.062;2023-09-19T04:25:55;17.60;99.90
18281;DHT22;9266;51.132;17.062;2023-09-19T04:28:23;17.60;99.90
18281;DHT22;9266;51.132;17.062;2023-09-19T04:30:51;17.60;99.90
18281;DHT22;9266;51.132;17.062;2023-09-19T04:33:18;17.60;99.90
18281;DHT22;9266;51.132;17.062;2023-09-19T04:35:49;17.70;99.90
18281;DHT22;9266;51.132;17.062;2023-09-19T04:38:16;17.60;99.90
18281;DHT22;9266;51.132;17.062;2023-09-19T04:40:43;17.50;99.90
18281;DHT22;9266;51.132;17.062;2023-09-19T04:43:10;17.60;99.90
18281;DHT22;9266;51.132;17.062;2023-09-19T04:45:38;17.60;99.90
18281;DHT22;9266;51.132;17.062;2023-09-19T04:48:06;17.60;99.90
18281;DHT22;9266;51.132;17.062;2023-09-19T04:50:34;17.40;99.90
18281;DHT22;9266;51.132;17.062;2023-09-19T04:53:04;17.60;99.90
18281;DHT22;9266;51.132;17.062;2023-09-19T04:55:31;17.60;99.90
18281;DHT22;9266;51.132;17.062;2023-09-19T04:57:58;17.50;99.90
18281;DHT22;9266;51.132;17.062;2023-09-19T05:00:25;17.50;99.90
18281;DHT22;9266;51.132;17.062;2023-09-19T05:02:56;17.60;99.90
18281;DHT22;9266;51.132;17.062;2023-09-19T05:05:23;17.60;99.90
18281;DHT22;9266;51.132;17.062;2023-09-19T05:07:51;17.60;99.90
18281;DHT22;9266;51.132;17.062;2023-09-19T05:10:21;17.60;99.90
18281;DHT22;9266;51.132;17.062;2023-09-19T05:12:48;17.60;99.90
18281;DHT22;9266;51.132;17.062;2023-09-19T05:15:17;17.60;99.90
18281;DHT22;9266;51.132;17.062;2023-09-19T05:17:48;17.70;99.90
18281;DHT22;9266;51.132;17.062;2023-09-19T05:20:17;17.80;99.90
18281;DHT22;9266;51.132;17.062;2023-09-19T05:22:50;17.80;99.90
18281;DHT22;9266;51.132;17.062;2023-09-19T05:25:17;17.80;99.90
18281;DHT22;9266;51.132;17.062;2023-09-19T05:27:49;17.90;99.90
18281;DHT22;9266;51.132;17.062;2023-09-19T05:30:17;18.10;99.90
18281;DHT22;9266;51.132;17.062;2023-09-19T05:32:45;18.20;99.90
18281;DHT22;9266;51.132;17.062;2023-09-19T05:35:12;18.20;99.90
18281;DHT22;9266;51.132;17.062;2023-09-19T05:37:39;18.30;99.90
18281;DHT22;9266;51.132;17.062;2023-09-19T05:40:07;18.30;99.90
18281;DHT22;9266;51.132;17.062;2023-09-19T05:42:38;18.40;99.90
18281;DHT22;9266;51.132;17.062;2023-09-19T05:45:09;18.40;99.90
18281;DHT22;9266;51.132;17.062;2023-09-19T05:47:38;18.50;99.90
18281;DHT22;9266;51.132;17.062;2023-09-19T05:50:06;18.60;99.90
18281;DHT22;9266;51.132;17.062;2023-09-19T05:52:34;18.60;99.90
18281;DHT22;9266;51.132;17.062;2023-09-19T05:55:03;18.70;99.90
18281;DHT22;9266;51.132;17.062;2023-09-19T05:57:32;18.70;99.90
18281;DHT22;9266;51.132;17.062;2023-09-19T05:59:59;18.90;99.90
18281;DHT22;9266;51.132;17.062;2023-09-19T06:02:27;19.10;99.90
18281;DHT22;9266;51.132;17.062;2023-09-19T06:04:55;19.20;99.90
18281;DHT22;9266;51.132;17.062;2023-09-19T06:07:22;19.40;99.90
18281;DHT22;9266;51.132;17.062;2023-09-19T06:09:51;19.60;99.90
18281;DHT22;9266;51.132;17.062;2023-09-19T06:12:19;20.10;99.90
18281;DHT22;9266;51.132;17.062;2023-09-19T06:14:46;20.50;99.90
18281;DHT22;9266;51.132;17.062;2023-09-19T06:17:13;20.70;99.90
18281;DHT22;9266;51.132;17.062;2023-09-19T06:19:42;20.60;99.90
18281;DHT22;9266;51.132;17.062;2023-09-19T06:22:15;20.60;99.90
18281;DHT22;9266;51.132;17.062;2023-09-19T06:24:43;20.70;99.90
18281;DHT22;9266;51.132;17.062;2023-09-19T06:27:11;20.60;99.90
18281;DHT22;9266;51.132;17.062;2023-09-19T06:29:38;20.40;99.90
18281;DHT22;9266;51.132;17.062;2023-09-19T06:32:07;20.30;99.90
18281;DHT22;9266;51.132;17.062;2023-09-19T06:34:35;20.10;99.90
18281;DHT22;9266;51.132;17.062;2023-09-19T06:37:05;19.90;99.90
18281;DHT22;9266;51.132;17.062;2023-09-19T06:39:32;19.90;99.90
18281;DHT22;9266;51.132;17.062;2023-09-19T06:41:59;19.80;99.90
18281;DHT22;9266;51.132;17.062;2023-09-19T06:44:27;19.80;99.90
18281;DHT22;9266;51.132;17.062;2023-09-19T06:46:55;19.60;99.90
18281;DHT22;9266;51.132;17.062;2023-09-19T06:49:22;19.80;99.90
18281;DHT22;9266;51.132;17.062;2023-09-19T06:51:49;19.80;99.90
18281;DHT22;9266;51.132;17.062;2023-09-19T06:54:17;19.40;99.90
18281;DHT22;9266;51.132;17.062;2023-09-19T06:56:44;19.90;99.90
18281;DHT22;9266;51.132;17.062;2023-09-19T06:59:11;19.80;99.90
18281;DHT22;9266;51.132;17.062;2023-09-19T07:01:40;20.00;99.90
18281;DHT22;9266;51.132;17.062;2023-09-19T07:04:10;20.20;99.90
18281;DHT22;9266;51.132;17.062;2023-09-19T07:06:38;20.40;99.90
18281;DHT22;9266;51.132;17.062;2023-09-19T07:09:05;20.60;99.90
18281;DHT22;9266;51.132;17.062;2023-09-19T07:11:35;21.00;99.90
18281;DHT22;9266;51.132;17.062;2023-09-19T07:14:02;21.40;1.00
18281;DHT22;9266;51.132;17.062;2023-09-19T07:16:31;21.50;1.00
18281;DHT22;9266;51.132;17.062;2023-09-19T07:18:58;22.10;1.00
18281;DHT22;9266;51.132;17.062;2023-09-19T07:21:25;22.60;99.90
18281;DHT22;9266;51.132;17.062;2023-09-19T07:23:52;22.60;1.00
18281;DHT22;9266;51.132;17.062;2023-09-19T07:26:19;22.80;1.00
18281;DHT22;9266;51.132;17.062;2023-09-19T07:28:48;22.80;1.00
18281;DHT22;9266;51.132;17.062;2023-09-19T07:31:14;23.00;1.00
18281;DHT22;9266;51.132;17.062;2023-09-19T07:33:42;22.80;99.90
18281;DHT22;9266;51.132;17.062;2023-09-19T07:36:10;22.90;99.90
18281;DHT22;9266;51.132;17.062;2023-09-19T07:38:39;22.30;99.90
18281;DHT22;9266;51.132;17.062;2023-09-19T07:41:06;21.90;99.90
18281;DHT22;9266;51.132;17.062;2023-09-19T07:43:34;21.40;99.90
18281;DHT22;9266;51.132;17.062;2023-09-19T07:46:05;21.40;99.90
18281;DHT22;9266;51.132;17.062;2023-09-19T07:48:34;21.40;1.00
18281;DHT22;9266;51.132;17.062;2023-09-19T07:51:03;21.90;49.40
18281;DHT22;9266;51.132;17.062;2023-09-19T07:53:30;22.20;1.00
18281;DHT22;9266;51.132;17.062;2023-09-19T07:56:04;21.80;1.00
18281;DHT22;9266;51.132;17.062;2023-09-19T07:58:31;21.70;1.00
18281;DHT22;9266;51.132;17.062;2023-09-19T08:01:05;21.30;99.90
18281;DHT22;9266;51.132;17.062;2023-09-19T08:03:32;21.20;1.00
18281;DHT22;9266;51.132;17.062;2023-09-19T08:05:59;21.10;1.00
18281;DHT22;9266;51.132;17.062;2023-09-19T08:08:26;21.00;1.00
18281;DHT22;9266;51.132;17.062;2023-09-19T08:10:54;21.20;1.00
18281;DHT22;9266;51.132;17.062;2023-09-19T08:13:22;21.10;1.00
18281;DHT22;9266;51.132;17.062;2023-09-19T08:15:49;21.00;1.00
18281;DHT22;9266;51.132;17.062;2023-09-19T08:18:20;21.10;99.90
18281;DHT22;9266;51.132;17.062;2023-09-19T08:20:52;21.00;99.90
18281;DHT22;9266;51.132;17.062;2023-09-19T08:23:19;21.20;99.90
18281;DHT22;9266;51.132;17.062;2023-09-19T08:25:47;21.30;99.90
18281;DHT22;9266;51.132;17.062;2023-09-19T08:28:14;21.10;99.90
18281;DHT22;9266;51.132;17.062;2023-09-19T08:30:45;21.10;99.90
18281;DHT22;9266;51.132;17.062;2023-09-19T08:33:12;21.10;51.40
18281;DHT22;9266;51.132;17.062;2023-09-19T08:35:42;21.10;1.00
18281;DHT22;9266;51.132;17.062;2023-09-19T08:38:11;21.10;99.90
18281;DHT22;9266;51.132;17.062;2023-09-19T08:40:39;21.00;1.00
18281;DHT22;9266;51.132;17.062;2023-09-19T08:43:08;21.00;99.90
18281;DHT22;9266;51.132;17.062;2023-09-19T08:45:35;21.30;99.90
18281;DHT22;9266;51.132;17.062;2023-09-19T08:48:19;21.60;1.00
18281;DHT22;9266;51.132;17.062;2023-09-19T08:50:51;21.70;1.00
18281;DHT22;9266;51.132;17.062;2023-09-19T08:53:27;21.60;99.90
18281;DHT22;9266;51.132;17.062;2023-09-19T08:55:59;21.60;99.90
18281;DHT22;9266;51.132;17.062;2023-09-19T08:58:33;21.30;1.00
18281;DHT22;9266;51.132;17.062;2023-09-19T09:01:01;21.40;99.90
18281;DHT22;9266;51.132;17.062;2023-09-19T09:03:33;21.30;1.00
18281;DHT22;9266;51.132;17.062;2023-09-19T09:06:02;21.20;1.00
18281;DHT22;9266;51.132;17.062;2023-09-19T09:08:30;21.00;1.00
18281;DHT22;9266;51.132;17.062;2023-09-19T09:10:58;20.80;1.00
18281;DHT22;9266;51.132;17.062;2023-09-19T09:13:26;20.90;1.00
18281;DHT22;9266;51.132;17.062;2023-09-19T09:15:53;21.00;1.00
18281;DHT22;9266;51.132;17.062;2023-09-19T09:18:20;20.70;1.00
18281;DHT22;9266;51.132;17.062;2023-09-19T09:20:48;20.70;1.00
18281;DHT22;9266;51.132;17.062;2023-09-19T09:23:16;20.80;1.00
18281;DHT22;9266;51.132;17.062;2023-09-19T09:25:50;20.90;1.00
18281;DHT22;9266;51.132;17.062;2023-09-19T09:28:21;20.80;1.00
18281;DHT22;9266;51.132;17.062;2023-09-19T09:30:48;20.80;1.00
18281;DHT22;9266;51.132;17.062;2023-09-19T09:33:16;21.10;1.00
18281;DHT22;9266;51.132;17.062;2023-09-19T09:35:51;21.20;1.00
18281;DHT22;9266;51.132;17.062;2023-09-19T09:38:24;21.80;99.90
18281;DHT22;9266;51.132;17.062;2023-09-19T09:40:54;22.20;1.00
18281;DHT22;9266;51.132;17.062;2023-09-19T09:43:28;22.30;1.00
18281;DHT22;9266;51.132;17.062;2023-09-19T09:46:10;21.90;1.00
18281;DHT22;9266;51.132;17.062;2023-09-19T09:49:10;22.30;1.00
18281;DHT22;9266;51.132;17.062;2023-09-19T09:51:59;22.30;99.90
18281;DHT22;9266;51.132;17.062;2023-09-19T09:54:35;22.40;99.90
18281;DHT22;9266;51.132;17.062;2023-09-19T09:57:04;22.50;99.90
18281;DHT22;9266;51.132;17.062;2023-09-19T09:59:48;22.60;99.90
18281;DHT22;9266;51.132;17.062;2023-09-19T10:02:17;22.80;99.90
18281;DHT22;9266;51.132;17.062;2023-09-19T10:04:51;22.90;33.10
18281;DHT22;9266;51.132;17.062;2023-09-19T10:07:33;22.70;28.10
18281;DHT22;9266;51.132;17.062;2023-09-19T10:10:06;22.40;99.90
18281;DHT22;9266;51.132;17.062;2023-09-19T10:12:43;22.50;99.90
18281;DHT22;9266;51.132;17.062;2023-09-19T10:15:15;22.70;99.90
18281;DHT22;9266;51.132;17.062;2023-09-19T10:17:43;22.60;99.90
18281;DHT22;9266;51.132;17.062;2023-09-19T10:20:15;22.70;99.90
18281;DHT22;9266;51.132;17.062;2023-09-19T10:22:50;22.80;99.90
18281;DHT22;9266;51.132;17.062;2023-09-19T10:25:25;22.80;75.50
18281;DHT22;9266;51.132;17.062;2023-09-19T10:27:54;22.00;1.00
18281;DHT22;9266;51.132;17.062;2023-09-19T10:30:24;22.90;1.00
18281;DHT22;9266;51.132;17.062;2023-09-19T10:33:02;22.70;1.00
18281;DHT22;9266;51.132;17.062;2023-09-19T10:35:30;22.70;1.00
18281;DHT22;9266;51.132;17.062;2023-09-19T10:38:00;22.30;1.00
18281;DHT22;9266;51.132;17.062;2023-09-19T10:40:29;21.80;90.10
18281;DHT22;9266;51.132;17.062;2023-09-19T10:43:02;21.60;99.90
18281;DHT22;9266;51.132;17.062;2023-09-19T10:45:33;21.40;99.90
18281;DHT22;9266;51.132;17.062;2023-09-19T10:48:00;21.80;99.90
18281;DHT22;9266;51.132;17.062;2023-09-19T10:50:31;22.40;99.90
18281;DHT22;9266;51.132;17.062;2023-09-19T10:53:00;22.60;1.00
18281;DHT22;9266;51.132;17.062;2023-09-19T10:55:35;23.20;1.00
18281;DHT22;9266;51.132;17.062;2023-09-19T10:58:03;23.50;1.00
18281;DHT22;9266;51.132;17.062;2023-09-19T11:00:53;23.40;1.00
18281;DHT22;9266;51.132;17.062;2023-09-19T11:03:21;23.20;1.00
18281;DHT22;9266;51.132;17.062;2023-09-19T11:06:16;22.90;1.00
18281;DHT22;9266;51.132;17.062;2023-09-19T11:09:00;23.00;1.00
18281;DHT22;9266;51.132;17.062;2023-09-19T11:11:47;22.90;1.00
18281;DHT22;9266;51.132;17.062;2023-09-19T11:14:40;23.10;1.00
18281;DHT22;9266;51.132;17.062;2023-09-19T11:17:41;23.10;1.00
18281;DHT22;9266;51.132;17.062;2023-09-19T11:20:21;23.00;1.00
18281;DHT22;9266;51.132;17.062;2023-09-19T11:23:20;22.50;1.00
18281;DHT22;9266;51.132;17.062;2023-09-19T11:25:52;22.10;1.00
18281;DHT22;9266;51.132;17.062;2023-09-19T11:28:35;22.20;1.00
18281;DHT22;9266;51.132;17.062;2023-09-19T11:34:45;22.80;1.00
18281;DHT22;9266;51.132;17.062;2023-09-19T11:40:37;23.00;99.90
18281;DHT22;9266;51.132;17.062;2023-09-19T11:43:28;23.20;99.90
18281;DHT22;9266;51.132;17.062;2023-09-19T11:46:07;23.50;99.90
18281;DHT22;9266;51.132;17.062;2023-09-19T11:48:41;23.70;1.00
18281;DHT22;9266;51.132;17.062;2023-09-19T11:51:14;23.70;1.00
18281;DHT22;9266;51.132;17.062;2023-09-19T11:53:53;23.50;1.00
18281;DHT22;9266;51.132;17.062;2023-09-19T11:56:22;22.80;1.00
18281;DHT22;9266;51.132;17.062;2023-09-19T11:58:50;22.40;1.00
18281;DHT22;9266;51.132;17.062;2023-09-19T12:01:24;22.40;1.00
18281;DHT22;9266;51.132;17.062;2023-09-19T12:03:55;22.30;1.00
18281;DHT22;9266;51.132;17.062;2023-09-19T12:06:25;22.40;1.00
18281;DHT22;9266;51.132;17.062;2023-09-19T12:08:52;22.40;1.00
18281;DHT22;9266;51.132;17.062;2023-09-19T12:11:22;22.70;1.00
18281;DHT22;9266;51.132;17.062;2023-09-19T12:13:50;22.90;1.00
18281;DHT22;9266;51.132;17.062;2023-09-19T12:16:19;23.20;1.00
18281;DHT22;9266;51.132;17.062;2023-09-19T12:18:50;23.40;1.00
18281;DHT22;9266;51.132;17.062;2023-09-19T12:21:24;22.30;1.00
18281;DHT22;9266;51.132;17.062;2023-09-19T12:24:13;23.80;1.00
18281;DHT22;9266;51.132;17.062;2023-09-19T12:26:43;23.90;1.00
18281;DHT22;9266;51.132;17.062;2023-09-19T12:29:13;23.60;1.00
18281;DHT22;9266;51.132;17.062;2023-09-19T12:31:51;23.50;1.00
18281;DHT22;9266;51.132;17.062;2023-09-19T12:34:22;23.70;1.00
18281;DHT22;9266;51.132;17.062;2023-09-19T12:37:04;23.90;1.00
18281;DHT22;9266;51.132;17.062;2023-09-19T12:39:37;23.90;1.00
18281;DHT22;9266;51.132;17.062;2023-09-19T12:42:08;23.60;1.00
18281;DHT22;9266;51.132;17.062;2023-09-19T12:44:36;23.70;1.00
18281;DHT22;9266;51.132;17.062;2023-09-19T12:47:14;24.00;1.00
18281;DHT22;9266;51.132;17.062;2023-09-19T12:50:21;24.10;1.00
18281;DHT22;9266;51.132;17.062;2023-09-19T12:52:55;24.10;1.00
18281;DHT22;9266;51.132;17.062;2023-09-19T12:55:27;24.20;1.00
18281;DHT22;9266;51.132;17.062;2023-09-19T12:58:00;24.10;1.00
18281;DHT22;9266;51.132;17.062;2023-09-19T13:00:34;24.20;1.00
18281;DHT22;9266;51.132;17.062;2023-09-19T13:03:18;24.30;1.00
18281;DHT22;9266;51.132;17.062;2023-09-19T13:05:52;24.20;1.00
18281;DHT22;9266;51.132;17.062;2023-09-19T13:08:23;24.10;1.00
18281;DHT22;9266;51.132;17.062;2023-09-19T13:11:05;24.00;1.00
18281;DHT22;9266;51.132;17.062;2023-09-19T13:13:36;23.70;1.00
18281;DHT22;9266;51.132;17.062;2023-09-19T13:16:04;23.80;1.00
18281;DHT22;9266;51.132;17.062;2023-09-19T13:18:42;23.70;1.00
18281;DHT22;9266;51.132;17.062;2023-09-19T13:21:13;23.60;1.00
18281;DHT22;9266;51.132;17.062;2023-09-19T13:23:50;23.30;1.00
18281;DHT22;9266;51.132;17.062;2023-09-19T13:26:17;23.40;1.00
18281;DHT22;9266;51.132;17.062;2023-09-19T13:28:44;23.40;1.00
18281;DHT22;9266;51.132;17.062;2023-09-19T13:31:15;23.50;1.00
18281;DHT22;9266;51.132;17.062;2023-09-19T13:33:45;23.40;1.00
18281;DHT22;9266;51.132;17.062;2023-09-19T13:36:13;23.40;1.00
18281;DHT22;9266;51.132;17.062;2023-09-19T13:38:41;23.20;1.00
18281;DHT22;9266;51.132;17.062;2023-09-19T13:41:09;23.20;1.00
18281;DHT22;9266;51.132;17.062;2023-09-19T13:43:36;23.20;1.00
18281;DHT22;9266;51.132;17.062;2023-09-19T13:46:04;23.20;1.00
18281;DHT22;9266;51.132;17.062;2023-09-19T13:48:33;23.30;1.00
18281;DHT22;9266;51.132;17.062;2023-09-19T13:51:02;23.20;1.00
18281;DHT22;9266;51.132;17.062;2023-09-19T13:53:31;23.10;1.00
18281;DHT22;9266;51.132;17.062;2023-09-19T13:55:57;23.10;1.00
18281;DHT22;9266;51.132;17.062;2023-09-19T13:58:24;23.00;1.00
18281;DHT22;9266;51.132;17.062;2023-09-19T14:00:52;23.20;1.00
18281;DHT22;9266;51.132;17.062;2023-09-19T14:03:21;23.30;1.00
18281;DHT22;9266;51.132;17.062;2023-09-19T14:05:49;23.30;1.00
18281;DHT22;9266;51.132;17.062;2023-09-19T14:08:17;23.30;1.00
18281;DHT22;9266;51.132;17.062;2023-09-19T14:10:49;23.30;1.00
18281;DHT22;9266;51.132;17.062;2023-09-19T14:13:16;23.30;1.00
18281;DHT22;9266;51.132;17.062;2023-09-19T14:15:43;23.40;1.00
18281;DHT22;9266;51.132;17.062;2023-09-19T14:18:10;23.20;1.00
18281;DHT22;9266;51.132;17.062;2023-09-19T14:20:38;23.00;1.00
18281;DHT22;9266;51.132;17.062;2023-09-19T14:23:07;23.00;1.00
18281;DHT22;9266;51.132;17.062;2023-09-19T14:25:34;23.00;1.00
18281;DHT22;9266;51.132;17.062;2023-09-19T14:28:04;23.20;1.00
18281;DHT22;9266;51.132;17.062;2023-09-19T14:30:33;23.10;1.00
18281;DHT22;9266;51.132;17.062;2023-09-19T14:33:01;22.90;1.00
18281;DHT22;9266;51.132;17.062;2023-09-19T14:35:28;22.80;1.00
18281;DHT22;9266;51.132;17.062;2023-09-19T14:37:55;22.80;1.00
18281;DHT22;9266;51.132;17.062;2023-09-19T14:40:22;23.00;1.00
18281;DHT22;9266;51.132;17.062;2023-09-19T14:42:49;23.00;1.00
18281;DHT22;9266;51.132;17.062;2023-09-19T14:45:17;23.00;1.00
18281;DHT22;9266;51.132;17.062;2023-09-19T14:47:45;23.00;1.00
18281;DHT22;9266;51.132;17.062;2023-09-19T14:50:12;22.90;1.00
18281;DHT22;9266;51.132;17.062;2023-09-19T14:52:40;22.90;1.00
18281;DHT22;9266;51.132;17.062;2023-09-19T14:55:08;22.80;1.00
18281;DHT22;9266;51.132;17.062;2023-09-19T14:57:40;22.70;1.00
18281;DHT22;9266;51.132;17.062;2023-09-19T15:00:10;22.60;1.00
18281;DHT22;9266;51.132;17.062;2023-09-19T15:02:39;22.50;1.00
18281;DHT22;9266;51.132;17.062;2023-09-19T15:05:07;22.60;1.00
18281;DHT22;9266;51.132;17.062;2023-09-19T15:07:35;22.70;1.00
18281;DHT22;9266;51.132;17.062;2023-09-19T15:10:04;22.80;1.00
18281;DHT22;9266;51.132;17.062;2023-09-19T15:12:32;23.00;1.00
18281;DHT22;9266;51.132;17.062;2023-09-19T15:15:02;23.00;1.00
18281;DHT22;9266;51.132;17.062;2023-09-19T15:17:31;22.80;1.00
18281;DHT22;9266;51.132;17.062;2023-09-19T15:19:59;22.70;99.90
18281;DHT22;9266;51.132;17.062;2023-09-19T15:22:27;22.70;99.90
18281;DHT22;9266;51.132;17.062;2023-09-19T15:24:54;22.70;1.00
18281;DHT22;9266;51.132;17.062;2023-09-19T15:27:22;22.60;1.00
18281;DHT22;9266;51.132;17.062;2023-09-19T15:29:49;22.60;1.00
18281;DHT22;9266;51.132;17.062;2023-09-19T15:32:16;22.40;1.00
18281;DHT22;9266;51.132;17.062;2023-09-19T15:34:42;22.30;1.00
18281;DHT22;9266;51.132;17.062;2023-09-19T15:37:11;22.30;1.00
18281;DHT22;9266;51.132;17.062;2023-09-19T15:39:38;22.30;1.00
18281;DHT22;9266;51.132;17.062;2023-09-19T15:42:05;22.40;1.00
18281;DHT22;9266;51.132;17.062;2023-09-19T15:44:32;22.40;1.00
18281;DHT22;9266;51.132;17.062;2023-09-19T15:46:59;22.50;1.00
18281;DHT22;9266;51.132;17.062;2023-09-19T15:49:26;22.50;1.00
18281;DHT22;9266;51.132;17.062;2023-09-19T15:51:53;22.50;1.00
18281;DHT22;9266;51.132;17.062;2023-09-19T15:54:22;22.40;1.00
18281;DHT22;9266;51.132;17.062;2023-09-19T15:56:51;22.40;98.00
18281;DHT22;9266;51.132;17.062;2023-09-19T15:59:18;22.30;1.00
18281;DHT22;9266;51.132;17.062;2023-09-19T16:01:45;22.10;99.90
18281;DHT22;9266;51.132;17.062;2023-09-19T16:04:13;22.10;99.90